sensor_id;sensor_type;location;lat;lon;timestamp;P1;durP1;ratioP1;P2;durP2;ratioP2
20945;SDS011;10632;51.276;7.116;2023-04-07T00:02:12;10.48;;;3.72;;
20945;SDS011;10632;51.276;7.116;2023-04-07T00:04:41;13.05;;;3.92;;
20945;SDS011;10632;51.276;7.116;2023-04-07T00:07:08;10.05;;;3.85;;
20945;SDS011;10632;51.276;7.116;2023-04-07T00:09:35;10.52;;;3.72;;
20945;SDS011;10632;51.276;7.116;2023-04-07T00:12:02;12.30;;;4.28;;
20945;SDS011;10632;51.276;7.116;2023-04-07T00:14:29;10.93;;;3.88;;
20945;SDS011;10632;51.276;7.116;2023-04-07T00:16:57;10.23;;;3.83;;
20945;SDS011;10632;51.276;7.116;2023-04-07T00:19:28;10.32;;;3.80;;
20945;SDS011;10632;51.276;7.116;2023-04-07T00:21:57;9.18;;;3.28;;
20945;SDS011;10632;51.276;7.116;2023-04-07T00:24:24;13.43;;;4.47;;
20945;SDS011;10632;51.276;7.116;2023-04-07T00:26:52;9.60;;;3.80;;
20945;SDS011;10632;51.276;7.116;2023-04-07T00:29:22;11.88;;;3.70;;
20945;SDS011;10632;51.276;7.116;2023-04-07T00:31:49;13.15;;;3.90;;
20945;SDS011;10632;51.276;7.116;2023-04-07T00:34:19;10.88;;;3.42;;
20945;SDS011;10632;51.276;7.116;2023-04-07T00:36:46;9.90;;;3.65;;
20945;SDS011;10632;51.276;7.116;2023-04-07T00:39:17;12.52;;;3.55;;
20945;SDS011;10632;51.276;7.116;2023-04-07T00:41:44;11.20;;;3.45;;
20945;SDS011;10632;51.276;7.116;2023-04-07T00:44:12;13.45;;;4.38;;
20945;SDS011;10632;51.276;7.116;2023-04-07T00:46:39;10.10;;;3.60;;
20945;SDS011;10632;51.276;7.116;2023-04-07T00:49:06;12.65;;;3.95;;
20945;SDS011;10632;51.276;7.116;2023-04-07T00:51:34;12.18;;;3.70;;
20945;SDS011;10632;51.276;7.116;2023-04-07T00:54:01;9.65;;;3.65;;
20945;SDS011;10632;51.276;7.116;2023-04-07T00:56:30;14.98;;;4.20;;
20945;SDS011;10632;51.276;7.116;2023-04-07T00:58:57;11.15;;;4.18;;
20945;SDS011;10632;51.276;7.116;2023-04-07T01:01:25;10.65;;;3.63;;
20945;SDS011;10632;51.276;7.116;2023-04-07T01:03:59;11.43;;;4.53;;
20945;SDS011;10632;51.276;7.116;2023-04-07T01:06:30;11.27;;;3.92;;
20945;SDS011;10632;51.276;7.116;2023-04-07T01:09:03;11.55;;;4.10;;
20945;SDS011;10632;51.276;7.116;2023-04-07T01:11:38;11.48;;;4.10;;
20945;SDS011;10632;51.276;7.116;2023-04-07T01:14:13;14.50;;;4.18;;
20945;SDS011;10632;51.276;7.116;2023-04-07T01:16:44;15.30;;;4.05;;
20945;SDS011;10632;51.276;7.116;2023-04-07T01:19:17;12.70;;;4.40;;
20945;SDS011;10632;51.276;7.116;2023-04-07T01:22:02;13.90;;;4.50;;
20945;SDS011;10632;51.276;7.116;2023-04-07T01:27:35;12.07;;;4.10;;
20945;SDS011;10632;51.276;7.116;2023-04-07T01:30:10;10.18;;;4.03;;
20945;SDS011;10632;51.276;7.116;2023-04-07T01:32:39;11.23;;;3.60;;
20945;SDS011;10632;51.276;7.116;2023-04-07T01:35:09;12.18;;;4.15;;
20945;SDS011;10632;51.276;7.116;2023-04-07T01:37:38;13.55;;;3.85;;
20945;SDS011;10632;51.276;7.116;2023-04-07T01:40:09;14.25;;;4.13;;
20945;SDS011;10632;51.276;7.116;2023-04-07T01:42:39;11.02;;;3.78;;
20945;SDS011;10632;51.276;7.116;2023-04-07T01:45:11;9.45;;;3.17;;
20945;SDS011;10632;51.276;7.116;2023-04-07T01:47:39;11.73;;;4.03;;
20945;SDS011;10632;51.276;7.116;2023-04-07T01:50:07;11.73;;;3.90;;
20945;SDS011;10632;51.276;7.116;2023-04-07T01:52:36;11.35;;;4.25;;
20945;SDS011;10632;51.276;7.116;2023-04-07T01:55:05;9.63;;;3.90;;
20945;SDS011;10632;51.276;7.116;2023-04-07T01:57:34;11.52;;;4.10;;
20945;SDS011;10632;51.276;7.116;2023-04-07T02:00:01;10.25;;;3.90;;
20945;SDS011;10632;51.276;7.116;2023-04-07T02:02:33;13.13;;;4.15;;
20945;SDS011;10632;51.276;7.116;2023-04-07T02:05:06;10.82;;;3.67;;
20945;SDS011;10632;51.276;7.116;2023-04-07T02:07:40;10.20;;;3.38;;
20945;SDS011;10632;51.276;7.116;2023-04-07T02:10:12;13.93;;;3.90;;
20945;SDS011;10632;51.276;7.116;2023-04-07T02:12:42;12.20;;;4.10;;
20945;SDS011;10632;51.276;7.116;2023-04-07T02:15:12;13.70;;;4.30;;
20945;SDS011;10632;51.276;7.116;2023-04-07T02:17:43;13.00;;;4.15;;
20945;SDS011;10632;51.276;7.116;2023-04-07T02:20:14;12.05;;;4.10;;
20945;SDS011;10632;51.276;7.116;2023-04-07T02:22:43;13.23;;;4.25;;
20945;SDS011;10632;51.276;7.116;2023-04-07T02:25:20;9.77;;;3.95;;
20945;SDS011;10632;51.276;7.116;2023-04-07T02:27:48;10.90;;;4.18;;
20945;SDS011;10632;51.276;7.116;2023-04-07T02:30:17;14.85;;;4.00;;
20945;SDS011;10632;51.276;7.116;2023-04-07T02:32:46;10.02;;;4.03;;
20945;SDS011;10632;51.276;7.116;2023-04-07T02:35:13;9.63;;;3.55;;
20945;SDS011;10632;51.276;7.116;2023-04-07T02:37:41;12.82;;;4.13;;
20945;SDS011;10632;51.276;7.116;2023-04-07T02:40:09;12.38;;;4.25;;
20945;SDS011;10632;51.276;7.116;2023-04-07T02:42:36;12.40;;;4.13;;
20945;SDS011;10632;51.276;7.116;2023-04-07T02:45:04;13.98;;;4.60;;
20945;SDS011;10632;51.276;7.116;2023-04-07T02:47:31;13.65;;;4.55;;
20945;SDS011;10632;51.276;7.116;2023-04-07T02:50:00;17.17;;;4.57;;
20945;SDS011;10632;51.276;7.116;2023-04-07T02:52:28;13.88;;;3.75;;
20945;SDS011;10632;51.276;7.116;2023-04-07T02:54:55;13.20;;;4.03;;
20945;SDS011;10632;51.276;7.116;2023-04-07T02:57:23;11.10;;;4.25;;
20945;SDS011;10632;51.276;7.116;2023-04-07T02:59:50;10.95;;;4.07;;
20945;SDS011;10632;51.276;7.116;2023-04-07T03:02:20;11.80;;;3.97;;
20945;SDS011;10632;51.276;7.116;2023-04-07T03:04:49;13.52;;;3.95;;
20945;SDS011;10632;51.276;7.116;2023-04-07T03:07:18;17.98;;;3.92;;
20945;SDS011;10632;51.276;7.116;2023-04-07T03:09:45;56.10;;;5.15;;
20945;SDS011;10632;51.276;7.116;2023-04-07T03:12:12;16.35;;;3.72;;
20945;SDS011;10632;51.276;7.116;2023-04-07T03:14:39;27.73;;;4.90;;
20945;SDS011;10632;51.276;7.116;2023-04-07T03:17:09;39.15;;;4.10;;
20945;SDS011;10632;51.276;7.116;2023-04-07T03:19:36;10.30;;;3.50;;
20945;SDS011;10632;51.276;7.116;2023-04-07T03:22:03;12.50;;;4.22;;
20945;SDS011;10632;51.276;7.116;2023-04-07T03:24:31;20.35;;;4.50;;
20945;SDS011;10632;51.276;7.116;2023-04-07T03:26:58;24.50;;;4.22;;
20945;SDS011;10632;51.276;7.116;2023-04-07T03:29:27;11.07;;;3.60;;
20945;SDS011;10632;51.276;7.116;2023-04-07T03:31:54;19.08;;;3.35;;
20945;SDS011;10632;51.276;7.116;2023-04-07T03:34:21;10.27;;;3.33;;
20945;SDS011;10632;51.276;7.116;2023-04-07T03:36:48;24.73;;;3.92;;
20945;SDS011;10632;51.276;7.116;2023-04-07T03:39:16;64.10;;;5.10;;
20945;SDS011;10632;51.276;7.116;2023-04-07T03:41:48;23.23;;;4.45;;
20945;SDS011;10632;51.276;7.116;2023-04-07T03:44:16;14.25;;;4.00;;
20945;SDS011;10632;51.276;7.116;2023-04-07T03:46:43;32.22;;;4.68;;
20945;SDS011;10632;51.276;7.116;2023-04-07T03:49:12;17.30;;;3.90;;
20945;SDS011;10632;51.276;7.116;2023-04-07T03:51:40;14.63;;;4.78;;
20945;SDS011;10632;51.276;7.116;2023-04-07T03:54:07;14.48;;;4.05;;
20945;SDS011;10632;51.276;7.116;2023-04-07T03:56:34;14.73;;;4.53;;
20945;SDS011;10632;51.276;7.116;2023-04-07T03:59:06;15.18;;;4.35;;
20945;SDS011;10632;51.276;7.116;2023-04-07T04:01:34;5.85;;;2.00;;
20945;SDS011;10632;51.276;7.116;2023-04-07T04:04:06;14.48;;;4.07;;
20945;SDS011;10632;51.276;7.116;2023-04-07T04:06:33;16.50;;;3.95;;
20945;SDS011;10632;51.276;7.116;2023-04-07T04:09:01;13.52;;;3.85;;
20945;SDS011;10632;51.276;7.116;2023-04-07T04:11:28;11.60;;;3.28;;
20945;SDS011;10632;51.276;7.116;2023-04-07T04:13:56;14.73;;;3.47;;
20945;SDS011;10632;51.276;7.116;2023-04-07T04:16:25;11.93;;;3.50;;
20945;SDS011;10632;51.276;7.116;2023-04-07T04:18:52;18.52;;;3.50;;
20945;SDS011;10632;51.276;7.116;2023-04-07T04:21:19;16.52;;;3.90;;
20945;SDS011;10632;51.276;7.116;2023-04-07T04:23:47;22.90;;;3.78;;
20945;SDS011;10632;51.276;7.116;2023-04-07T04:26:14;10.93;;;3.22;;
20945;SDS011;10632;51.276;7.116;2023-04-07T04:28:41;12.35;;;3.50;;
20945;SDS011;10632;51.276;7.116;2023-04-07T04:31:08;16.10;;;4.30;;
20945;SDS011;10632;51.276;7.116;2023-04-07T04:33:37;17.92;;;3.45;;
20945;SDS011;10632;51.276;7.116;2023-04-07T04:36:05;16.55;;;3.47;;
20945;SDS011;10632;51.276;7.116;2023-04-07T04:38:33;34.47;;;3.85;;
20945;SDS011;10632;51.276;7.116;2023-04-07T04:41:00;14.48;;;3.30;;
20945;SDS011;10632;51.276;7.116;2023-04-07T04:43:27;14.48;;;3.38;;
20945;SDS011;10632;51.276;7.116;2023-04-07T04:45:54;26.13;;;3.13;;
20945;SDS011;10632;51.276;7.116;2023-04-07T04:48:21;19.58;;;3.38;;
20945;SDS011;10632;51.276;7.116;2023-04-07T04:50:50;13.65;;;2.53;;
20945;SDS011;10632;51.276;7.116;2023-04-07T04:53:20;11.45;;;2.83;;
20945;SDS011;10632;51.276;7.116;2023-04-07T04:55:48;14.82;;;3.47;;
20945;SDS011;10632;51.276;7.116;2023-04-07T04:58:17;14.68;;;3.30;;
20945;SDS011;10632;51.276;7.116;2023-04-07T05:00:44;11.30;;;3.05;;
20945;SDS011;10632;51.276;7.116;2023-04-07T05:03:11;12.93;;;2.95;;
20945;SDS011;10632;51.276;7.116;2023-04-07T05:05:38;13.13;;;2.88;;
20945;SDS011;10632;51.276;7.116;2023-04-07T05:08:07;15.77;;;2.90;;
20945;SDS011;10632;51.276;7.116;2023-04-07T05:10:37;13.68;;;2.75;;
20945;SDS011;10632;51.276;7.116;2023-04-07T05:13:04;8.55;;;2.67;;
20945;SDS011;10632;51.276;7.116;2023-04-07T05:15:31;12.07;;;2.60;;
20945;SDS011;10632;51.276;7.116;2023-04-07T05:17:58;14.73;;;3.60;;
20945;SDS011;10632;51.276;7.116;2023-04-07T05:20:25;13.25;;;3.03;;
20945;SDS011;10632;51.276;7.116;2023-04-07T05:22:52;16.92;;;3.53;;
20945;SDS011;10632;51.276;7.116;2023-04-07T05:25:21;13.68;;;3.22;;
20945;SDS011;10632;51.276;7.116;2023-04-07T05:27:47;10.38;;;2.50;;
20945;SDS011;10632;51.276;7.116;2023-04-07T05:30:16;10.27;;;3.15;;
20945;SDS011;10632;51.276;7.116;2023-04-07T05:32:44;11.90;;;3.13;;
20945;SDS011;10632;51.276;7.116;2023-04-07T05:35:11;10.32;;;2.75;;
20945;SDS011;10632;51.276;7.116;2023-04-07T05:37:38;10.07;;;2.90;;
20945;SDS011;10632;51.276;7.116;2023-04-07T05:40:06;11.63;;;3.20;;
20945;SDS011;10632;51.276;7.116;2023-04-07T05:42:35;10.40;;;3.08;;
20945;SDS011;10632;51.276;7.116;2023-04-07T05:45:02;15.98;;;3.85;;
20945;SDS011;10632;51.276;7.116;2023-04-07T05:47:29;11.15;;;3.50;;
20945;SDS011;10632;51.276;7.116;2023-04-07T05:49:55;10.85;;;2.78;;
20945;SDS011;10632;51.276;7.116;2023-04-07T05:52:22;9.45;;;2.75;;
20945;SDS011;10632;51.276;7.116;2023-04-07T05:54:49;12.35;;;2.97;;
20945;SDS011;10632;51.276;7.116;2023-04-07T05:57:16;12.60;;;3.55;;
20945;SDS011;10632;51.276;7.116;2023-04-07T05:59:44;11.80;;;3.15;;
20945;SDS011;10632;51.276;7.116;2023-04-07T06:02:11;9.35;;;3.03;;
20945;SDS011;10632;51.276;7.116;2023-04-07T06:04:39;8.27;;;2.80;;
20945;SDS011;10632;51.276;7.116;2023-04-07T06:07:06;12.40;;;3.17;;
20945;SDS011;10632;51.276;7.116;2023-04-07T06:09:33;10.63;;;3.05;;
20945;SDS011;10632;51.276;7.116;2023-04-07T06:12:00;9.57;;;2.95;;
20945;SDS011;10632;51.276;7.116;2023-04-07T06:14:29;12.05;;;3.25;;
20945;SDS011;10632;51.276;7.116;2023-04-07T06:16:57;11.38;;;3.33;;
20945;SDS011;10632;51.276;7.116;2023-04-07T06:19:26;13.75;;;3.72;;
20945;SDS011;10632;51.276;7.116;2023-04-07T06:21:53;12.57;;;3.03;;
20945;SDS011;10632;51.276;7.116;2023-04-07T06:24:20;12.68;;;2.65;;
20945;SDS011;10632;51.276;7.116;2023-04-07T06:26:49;10.20;;;2.85;;
20945;SDS011;10632;51.276;7.116;2023-04-07T06:29:17;13.88;;;3.00;;
20945;SDS011;10632;51.276;7.116;2023-04-07T06:31:46;12.80;;;3.08;;
20945;SDS011;10632;51.276;7.116;2023-04-07T06:34:15;13.43;;;2.70;;
20945;SDS011;10632;51.276;7.116;2023-04-07T06:36:44;11.43;;;2.95;;
20945;SDS011;10632;51.276;7.116;2023-04-07T06:39:11;11.20;;;3.10;;
20945;SDS011;10632;51.276;7.116;2023-04-07T06:41:38;14.27;;;3.13;;
20945;SDS011;10632;51.276;7.116;2023-04-07T06:44:07;9.63;;;2.63;;
20945;SDS011;10632;51.276;7.116;2023-04-07T06:46:35;11.57;;;2.33;;
20945;SDS011;10632;51.276;7.116;2023-04-07T06:49:02;10.63;;;2.47;;
20945;SDS011;10632;51.276;7.116;2023-04-07T06:51:30;8.05;;;2.25;;
20945;SDS011;10632;51.276;7.116;2023-04-07T06:54:03;6.45;;;1.73;;
20945;SDS011;10632;51.276;7.116;2023-04-07T06:56:31;6.40;;;2.22;;
20945;SDS011;10632;51.276;7.116;2023-04-07T06:58:58;5.20;;;1.33;;
20945;SDS011;10632;51.276;7.116;2023-04-07T07:01:25;5.85;;;1.80;;
20945;SDS011;10632;51.276;7.116;2023-04-07T07:03:52;5.50;;;1.75;;
20945;SDS011;10632;51.276;7.116;2023-04-07T07:06:19;4.68;;;1.50;;
20945;SDS011;10632;51.276;7.116;2023-04-07T07:08:47;5.57;;;1.65;;
20945;SDS011;10632;51.276;7.116;2023-04-07T07:11:15;7.22;;;1.90;;
20945;SDS011;10632;51.276;7.116;2023-04-07T07:13:42;6.00;;;1.80;;
20945;SDS011;10632;51.276;7.116;2023-04-07T07:16:10;9.10;;;2.40;;
20945;SDS011;10632;51.276;7.116;2023-04-07T07:18:37;5.22;;;1.60;;
20945;SDS011;10632;51.276;7.116;2023-04-07T07:21:04;5.60;;;1.73;;
20945;SDS011;10632;51.276;7.116;2023-04-07T07:23:32;6.53;;;1.92;;
20945;SDS011;10632;51.276;7.116;2023-04-07T07:26:00;7.38;;;1.92;;
20945;SDS011;10632;51.276;7.116;2023-04-07T07:28:30;7.55;;;2.03;;
20945;SDS011;10632;51.276;7.116;2023-04-07T07:30:57;6.72;;;2.40;;
20945;SDS011;10632;51.276;7.116;2023-04-07T07:33:24;7.38;;;1.95;;
20945;SDS011;10632;51.276;7.116;2023-04-07T07:35:51;8.25;;;2.28;;
20945;SDS011;10632;51.276;7.116;2023-04-07T07:38:18;6.55;;;2.08;;
20945;SDS011;10632;51.276;7.116;2023-04-07T07:40:46;9.27;;;2.00;;
20945;SDS011;10632;51.276;7.116;2023-04-07T07:43:14;7.93;;;2.15;;
20945;SDS011;10632;51.276;7.116;2023-04-07T07:45:44;10.45;;;2.70;;
20945;SDS011;10632;51.276;7.116;2023-04-07T07:48:11;13.05;;;2.70;;
20945;SDS011;10632;51.276;7.116;2023-04-07T07:50:38;9.93;;;3.13;;
20945;SDS011;10632;51.276;7.116;2023-04-07T07:53:08;11.63;;;3.13;;
20945;SDS011;10632;51.276;7.116;2023-04-07T07:55:36;9.63;;;2.75;;
20945;SDS011;10632;51.276;7.116;2023-04-07T07:58:03;11.85;;;3.00;;
20945;SDS011;10632;51.276;7.116;2023-04-07T08:00:33;16.48;;;3.40;;
20945;SDS011;10632;51.276;7.116;2023-04-07T08:03:01;12.63;;;3.65;;
20945;SDS011;10632;51.276;7.116;2023-04-07T08:05:31;16.52;;;3.67;;
20945;SDS011;10632;51.276;7.116;2023-04-07T08:08:01;18.50;;;4.45;;
20945;SDS011;10632;51.276;7.116;2023-04-07T08:10:28;15.18;;;3.70;;
20945;SDS011;10632;51.276;7.116;2023-04-07T08:12:55;13.40;;;3.50;;
20945;SDS011;10632;51.276;7.116;2023-04-07T08:15:25;15.13;;;4.35;;
20945;SDS011;10632;51.276;7.116;2023-04-07T08:17:57;21.48;;;4.75;;
20945;SDS011;10632;51.276;7.116;2023-04-07T08:20:31;21.20;;;4.88;;
20945;SDS011;10632;51.276;7.116;2023-04-07T08:22:58;16.23;;;4.40;;
20945;SDS011;10632;51.276;7.116;2023-04-07T08:25:26;19.30;;;4.72;;
20945;SDS011;10632;51.276;7.116;2023-04-07T08:27:53;22.27;;;4.32;;
20945;SDS011;10632;51.276;7.116;2023-04-07T08:30:22;17.83;;;4.13;;
20945;SDS011;10632;51.276;7.116;2023-04-07T08:32:49;18.33;;;4.85;;
20945;SDS011;10632;51.276;7.116;2023-04-07T08:35:18;19.88;;;5.22;;
20945;SDS011;10632;51.276;7.116;2023-04-07T08:37:46;20.05;;;4.63;;
20945;SDS011;10632;51.276;7.116;2023-04-07T08:40:14;18.08;;;5.07;;
20945;SDS011;10632;51.276;7.116;2023-04-07T08:42:42;21.05;;;4.88;;
20945;SDS011;10632;51.276;7.116;2023-04-07T08:45:12;20.50;;;4.78;;
20945;SDS011;10632;51.276;7.116;2023-04-07T08:47:41;26.10;;;5.47;;
20945;SDS011;10632;51.276;7.116;2023-04-07T08:50:13;18.38;;;4.20;;
20945;SDS011;10632;51.276;7.116;2023-04-07T08:52:45;21.02;;;4.38;;
20945;SDS011;10632;51.276;7.116;2023-04-07T08:55:16;19.63;;;5.25;;
20945;SDS011;10632;51.276;7.116;2023-04-07T08:57:43;17.08;;;4.28;;
20945;SDS011;10632;51.276;7.116;2023-04-07T09:00:13;20.30;;;4.95;;
20945;SDS011;10632;51.276;7.116;2023-04-07T09:02:41;16.15;;;4.78;;
20945;SDS011;10632;51.276;7.116;2023-04-07T09:05:09;21.83;;;4.55;;
20945;SDS011;10632;51.276;7.116;2023-04-07T09:07:40;17.52;;;4.35;;
20945;SDS011;10632;51.276;7.116;2023-04-07T09:10:08;21.45;;;5.13;;
20945;SDS011;10632;51.276;7.116;2023-04-07T09:12:35;21.75;;;4.68;;
20945;SDS011;10632;51.276;7.116;2023-04-07T09:15:03;15.90;;;4.75;;
20945;SDS011;10632;51.276;7.116;2023-04-07T09:17:32;16.25;;;4.55;;
20945;SDS011;10632;51.276;7.116;2023-04-07T09:19:59;22.75;;;5.05;;
20945;SDS011;10632;51.276;7.116;2023-04-07T09:22:33;20.98;;;5.13;;
20945;SDS011;10632;51.276;7.116;2023-04-07T09:25:10;20.10;;;4.45;;
20945;SDS011;10632;51.276;7.116;2023-04-07T09:27:52;14.35;;;3.72;;
20945;SDS011;10632;51.276;7.116;2023-04-07T09:30:20;12.20;;;3.00;;
20945;SDS011;10632;51.276;7.116;2023-04-07T09:32:47;10.35;;;2.78;;
20945;SDS011;10632;51.276;7.116;2023-04-07T09:35:14;7.22;;;2.35;;
20945;SDS011;10632;51.276;7.116;2023-04-07T09:37:41;8.38;;;2.28;;
20945;SDS011;10632;51.276;7.116;2023-04-07T09:40:10;8.50;;;1.92;;
20945;SDS011;10632;51.276;7.116;2023-04-07T09:42:44;12.80;;;2.80;;
20945;SDS011;10632;51.276;7.116;2023-04-07T09:48:06;10.63;;;2.53;;
20945;SDS011;10632;51.276;7.116;2023-04-07T09:50:34;10.48;;;3.00;;
20945;SDS011;10632;51.276;7.116;2023-04-07T09:53:02;12.27;;;3.15;;
20945;SDS011;10632;51.276;7.116;2023-04-07T09:55:30;10.23;;;2.40;;
20945;SDS011;10632;51.276;7.116;2023-04-07T09:57:59;13.48;;;3.67;;
20945;SDS011;10632;51.276;7.116;2023-04-07T10:00:27;12.05;;;2.85;;
20945;SDS011;10632;51.276;7.116;2023-04-07T10:02:54;17.55;;;3.08;;
20945;SDS011;10632;51.276;7.116;2023-04-07T10:05:22;13.07;;;3.15;;
20945;SDS011;10632;51.276;7.116;2023-04-07T10:07:50;10.00;;;2.72;;
20945;SDS011;10632;51.276;7.116;2023-04-07T10:10:20;7.85;;;2.67;;
20945;SDS011;10632;51.276;7.116;2023-04-07T10:12:48;7.80;;;2.17;;
20945;SDS011;10632;51.276;7.116;2023-04-07T10:15:19;7.45;;;2.33;;
20945;SDS011;10632;51.276;7.116;2023-04-07T10:17:47;5.25;;;1.67;;
20945;SDS011;10632;51.276;7.116;2023-04-07T10:20:16;8.23;;;1.80;;
20945;SDS011;10632;51.276;7.116;2023-04-07T10:22:44;4.28;;;1.35;;
20945;SDS011;10632;51.276;7.116;2023-04-07T10:25:13;5.47;;;1.70;;
20945;SDS011;10632;51.276;7.116;2023-04-07T10:27:44;5.68;;;2.03;;
20945;SDS011;10632;51.276;7.116;2023-04-07T10:30:17;3.83;;;1.48;;
20945;SDS011;10632;51.276;7.116;2023-04-07T10:32:48;5.82;;;2.00;;
20945;SDS011;10632;51.276;7.116;2023-04-07T10:35:16;6.97;;;1.85;;
20945;SDS011;10632;51.276;7.116;2023-04-07T10:40:39;4.13;;;1.30;;
20945;SDS011;10632;51.276;7.116;2023-04-07T10:43:08;5.45;;;1.30;;
20945;SDS011;10632;51.276;7.116;2023-04-07T10:45:55;4.70;;;1.55;;
20945;SDS011;10632;51.276;7.116;2023-04-07T10:48:25;7.10;;;2.00;;
20945;SDS011;10632;51.276;7.116;2023-04-07T10:51:15;7.88;;;1.90;;
20945;SDS011;10632;51.276;7.116;2023-04-07T10:57:03;10.45;;;2.58;;
20945;SDS011;10632;51.276;7.116;2023-04-07T10:59:35;9.02;;;2.90;;
20945;SDS011;10632;51.276;7.116;2023-04-07T11:04:56;13.68;;;3.42;;
20945;SDS011;10632;51.276;7.116;2023-04-07T11:07:42;15.95;;;3.80;;
20945;SDS011;10632;51.276;7.116;2023-04-07T11:10:17;14.43;;;3.28;;
20945;SDS011;10632;51.276;7.116;2023-04-07T11:13:02;12.63;;;3.50;;
20945;SDS011;10632;51.276;7.116;2023-04-07T11:15:32;11.68;;;3.83;;
20945;SDS011;10632;51.276;7.116;2023-04-07T11:18:10;10.57;;;3.28;;
20945;SDS011;10632;51.276;7.116;2023-04-07T11:20:40;15.98;;;3.55;;
20945;SDS011;10632;51.276;7.116;2023-04-07T11:23:11;19.50;;;4.28;;
20945;SDS011;10632;51.276;7.116;2023-04-07T11:25:39;18.60;;;4.78;;
20945;SDS011;10632;51.276;7.116;2023-04-07T11:28:09;17.45;;;4.20;;
20945;SDS011;10632;51.276;7.116;2023-04-07T11:30:43;17.80;;;3.80;;
20945;SDS011;10632;51.276;7.116;2023-04-07T11:33:18;15.15;;;4.05;;
20945;SDS011;10632;51.276;7.116;2023-04-07T11:35:47;16.15;;;4.07;;
20945;SDS011;10632;51.276;7.116;2023-04-07T11:38:15;18.75;;;4.40;;
20945;SDS011;10632;51.276;7.116;2023-04-07T11:40:45;16.20;;;4.13;;
20945;SDS011;10632;51.276;7.116;2023-04-07T11:43:15;21.85;;;4.32;;
20945;SDS011;10632;51.276;7.116;2023-04-07T11:48:32;16.25;;;4.53;;
20945;SDS011;10632;51.276;7.116;2023-04-07T11:50:59;16.65;;;5.03;;
20945;SDS011;10632;51.276;7.116;2023-04-07T11:53:31;15.30;;;4.60;;
20945;SDS011;10632;51.276;7.116;2023-04-07T11:56:02;14.90;;;4.22;;
20945;SDS011;10632;51.276;7.116;2023-04-07T11:58:32;20.52;;;4.20;;
20945;SDS011;10632;51.276;7.116;2023-04-07T12:00:59;13.80;;;4.43;;
20945;SDS011;10632;51.276;7.116;2023-04-07T12:03:32;15.90;;;4.15;;
20945;SDS011;10632;51.276;7.116;2023-04-07T12:06:01;14.43;;;4.10;;
20945;SDS011;10632;51.276;7.116;2023-04-07T12:08:41;15.57;;;4.40;;
20945;SDS011;10632;51.276;7.116;2023-04-07T12:11:09;14.85;;;4.22;;
20945;SDS011;10632;51.276;7.116;2023-04-07T12:13:36;18.02;;;3.65;;
20945;SDS011;10632;51.276;7.116;2023-04-07T12:16:03;14.95;;;3.63;;
20945;SDS011;10632;51.276;7.116;2023-04-07T12:18:33;12.70;;;3.45;;
20945;SDS011;10632;51.276;7.116;2023-04-07T12:21:00;22.00;;;4.18;;
20945;SDS011;10632;51.276;7.116;2023-04-07T12:23:27;13.98;;;3.97;;
20945;SDS011;10632;51.276;7.116;2023-04-07T12:25:54;12.98;;;3.90;;
20945;SDS011;10632;51.276;7.116;2023-04-07T12:28:21;16.10;;;4.07;;
20945;SDS011;10632;51.276;7.116;2023-04-07T12:30:48;14.38;;;3.88;;
20945;SDS011;10632;51.276;7.116;2023-04-07T12:33:15;12.65;;;3.47;;
20945;SDS011;10632;51.276;7.116;2023-04-07T12:35:43;16.88;;;4.60;;
20945;SDS011;10632;51.276;7.116;2023-04-07T12:38:10;17.60;;;4.90;;
20945;SDS011;10632;51.276;7.116;2023-04-07T12:40:39;17.42;;;3.92;;
20945;SDS011;10632;51.276;7.116;2023-04-07T12:43:06;18.73;;;4.78;;
20945;SDS011;10632;51.276;7.116;2023-04-07T12:45:33;12.82;;;3.85;;
20945;SDS011;10632;51.276;7.116;2023-04-07T12:47:59;12.90;;;3.97;;
20945;SDS011;10632;51.276;7.116;2023-04-07T12:50:26;17.42;;;4.40;;
20945;SDS011;10632;51.276;7.116;2023-04-07T12:52:55;15.35;;;4.18;;
20945;SDS011;10632;51.276;7.116;2023-04-07T12:55:23;14.15;;;3.92;;
20945;SDS011;10632;51.276;7.116;2023-04-07T12:57:50;11.85;;;3.88;;
20945;SDS011;10632;51.276;7.116;2023-04-07T13:00:17;13.20;;;4.25;;
20945;SDS011;10632;51.276;7.116;2023-04-07T13:02:44;14.25;;;4.38;;
20945;SDS011;10632;51.276;7.116;2023-04-07T13:05:12;14.32;;;4.43;;
20945;SDS011;10632;51.276;7.116;2023-04-07T13:07:39;17.90;;;5.35;;
20945;SDS011;10632;51.276;7.116;2023-04-07T13:10:08;15.70;;;4.60;;
20945;SDS011;10632;51.276;7.116;2023-04-07T13:12:35;16.30;;;5.05;;
20945;SDS011;10632;51.276;7.116;2023-04-07T13:15:04;15.73;;;4.90;;
20945;SDS011;10632;51.276;7.116;2023-04-07T13:17:32;18.08;;;5.35;;
20945;SDS011;10632;51.276;7.116;2023-04-07T13:20:00;19.33;;;5.85;;
20945;SDS011;10632;51.276;7.116;2023-04-07T13:22:28;19.58;;;5.70;;
20945;SDS011;10632;51.276;7.116;2023-04-07T13:24:55;21.63;;;5.47;;
20945;SDS011;10632;51.276;7.116;2023-04-07T13:27:26;19.60;;;6.15;;
20945;SDS011;10632;51.276;7.116;2023-04-07T13:29:53;19.00;;;5.22;;
20945;SDS011;10632;51.276;7.116;2023-04-07T13:32:19;19.02;;;5.18;;
20945;SDS011;10632;51.276;7.116;2023-04-07T13:34:47;15.52;;;5.00;;
20945;SDS011;10632;51.276;7.116;2023-04-07T13:37:14;27.10;;;5.40;;
20945;SDS011;10632;51.276;7.116;2023-04-07T13:39:43;18.95;;;5.32;;
20945;SDS011;10632;51.276;7.116;2023-04-07T13:42:12;18.65;;;5.10;;
20945;SDS011;10632;51.276;7.116;2023-04-07T13:44:44;22.75;;;5.00;;
20945;SDS011;10632;51.276;7.116;2023-04-07T13:47:12;15.82;;;4.82;;
20945;SDS011;10632;51.276;7.116;2023-04-07T13:49:43;15.57;;;4.47;;
20945;SDS011;10632;51.276;7.116;2023-04-07T13:52:11;14.23;;;5.05;;
20945;SDS011;10632;51.276;7.116;2023-04-07T13:54:38;15.10;;;4.97;;
20945;SDS011;10632;51.276;7.116;2023-04-07T13:57:08;17.30;;;4.78;;
20945;SDS011;10632;51.276;7.116;2023-04-07T13:59:35;17.52;;;4.82;;
20945;SDS011;10632;51.276;7.116;2023-04-07T14:02:03;19.80;;;5.63;;
20945;SDS011;10632;51.276;7.116;2023-04-07T14:04:30;13.90;;;4.68;;
20945;SDS011;10632;51.276;7.116;2023-04-07T14:06:57;13.90;;;4.40;;
20945;SDS011;10632;51.276;7.116;2023-04-07T14:09:24;15.18;;;4.60;;
20945;SDS011;10632;51.276;7.116;2023-04-07T14:11:51;18.38;;;4.65;;
20945;SDS011;10632;51.276;7.116;2023-04-07T14:14:18;15.80;;;4.35;;
20945;SDS011;10632;51.276;7.116;2023-04-07T14:16:48;16.05;;;5.10;;
20945;SDS011;10632;51.276;7.116;2023-04-07T14:19:18;11.85;;;3.97;;
20945;SDS011;10632;51.276;7.116;2023-04-07T14:21:46;13.65;;;4.03;;
20945;SDS011;10632;51.276;7.116;2023-04-07T14:24:13;13.90;;;4.60;;
20945;SDS011;10632;51.276;7.116;2023-04-07T14:26:41;21.58;;;5.03;;
20945;SDS011;10632;51.276;7.116;2023-04-07T14:29:10;14.40;;;4.28;;
20945;SDS011;10632;51.276;7.116;2023-04-07T14:31:37;11.25;;;3.40;;
20945;SDS011;10632;51.276;7.116;2023-04-07T14:34:04;13.88;;;2.65;;
20945;SDS011;10632;51.276;7.116;2023-04-07T14:36:33;5.68;;;1.70;;
20945;SDS011;10632;51.276;7.116;2023-04-07T14:39:00;4.90;;;1.65;;
20945;SDS011;10632;51.276;7.116;2023-04-07T14:41:28;3.20;;;1.23;;
20945;SDS011;10632;51.276;7.116;2023-04-07T14:43:55;3.58;;;1.40;;
20945;SDS011;10632;51.276;7.116;2023-04-07T14:46:22;2.55;;;0.75;;
20945;SDS011;10632;51.276;7.116;2023-04-07T14:48:50;1.92;;;0.88;;
20945;SDS011;10632;51.276;7.116;2023-04-07T14:51:17;2.58;;;1.00;;
20945;SDS011;10632;51.276;7.116;2023-04-07T14:53:46;3.00;;;1.10;;
20945;SDS011;10632;51.276;7.116;2023-04-07T14:56:17;3.35;;;1.20;;
20945;SDS011;10632;51.276;7.116;2023-04-07T14:58:48;3.00;;;1.05;;
20945;SDS011;10632;51.276;7.116;2023-04-07T15:01:15;3.20;;;1.35;;
20945;SDS011;10632;51.276;7.116;2023-04-07T15:03:43;3.55;;;1.38;;
20945;SDS011;10632;51.276;7.116;2023-04-07T15:06:11;3.38;;;1.33;;